createdAt,value
2023-09-24T00:01:02.161Z,23.80
2023-09-24T00:03:29.828Z,23.70
2023-09-24T00:05:59.618Z,23.70
2023-09-24T00:08:27.109Z,23.70
2023-09-24T00:10:54.660Z,23.70
2023-09-24T00:13:23.589Z,23.70
2023-09-24T00:15:52.065Z,23.70
2023-09-24T00:18:22.259Z,23.60
2023-09-24T00:20:51.288Z,23.60
2023-09-24T00:23:18.865Z,23.60
2023-09-24T00:25:46.278Z,23.50
2023-09-24T00:28:13.690Z,23.50
2023-09-24T00:30:43.923Z,23.50
2023-09-24T00:33:12.005Z,23.50
2023-09-24T00:35:40.046Z,23.50
2023-09-24T00:38:09.144Z,23.50
2023-09-24T00:40:36.496Z,23.50
2023-09-24T00:43:04.645Z,23.40
2023-09-24T00:45:34.189Z,23.40
2023-09-24T00:48:02.031Z,23.40
2023-09-24T00:50:34.987Z,23.30
2023-09-24T00:53:04.286Z,23.30
2023-09-24T00:55:33.059Z,23.30
2023-09-24T00:58:01.014Z,23.30
2023-09-24T01:00:32.230Z,23.20
2023-09-24T01:03:00.038Z,23.20
2023-09-24T01:05:30.981Z,23.20
2023-09-24T01:07:58.381Z,23.10
2023-09-24T01:10:27.083Z,23.10
2023-09-24T01:12:56.187Z,23.10
2023-09-24T01:15:25.594Z,23.10
2023-09-24T01:17:54.321Z,23.10
2023-09-24T01:20:23.907Z,23.00
2023-09-24T01:22:52.692Z,23.00
2023-09-24T01:25:20.354Z,22.90
2023-09-24T01:27:49.861Z,22.90
2023-09-24T01:30:17.360Z,22.90
2023-09-24T01:32:46.892Z,22.80
2023-09-24T01:35:16.771Z,22.70
2023-09-24T01:37:44.150Z,22.60
2023-09-24T01:40:19.763Z,22.50
2023-09-24T01:42:47.979Z,22.40
2023-09-24T01:45:17.286Z,22.30
2023-09-24T01:47:51.826Z,22.20
2023-09-24T01:50:19.560Z,22.20
2023-09-24T01:52:47.007Z,22.20
2023-09-24T01:55:16.100Z,22.20
2023-09-24T01:57:46.914Z,22.30
2023-09-24T02:00:19.406Z,22.30
2023-09-24T02:02:46.928Z,22.30
2023-09-24T02:05:15.086Z,22.30
2023-09-24T02:07:42.587Z,22.30
2023-09-24T02:10:10.256Z,22.30
2023-09-24T02:12:38.818Z,22.30
2023-09-24T02:15:13.656Z,22.30
2023-09-24T02:17:41.354Z,22.20
2023-09-24T02:20:24.184Z,22.20
2023-09-24T02:22:54.156Z,22.20
2023-09-24T02:25:25.453Z,22.20
2023-09-24T02:27:53.117Z,22.10
2023-09-24T02:30:22.192Z,22.10
2023-09-24T02:32:50.417Z,22.10
2023-09-24T02:35:18.594Z,22.00
2023-09-24T02:37:49.347Z,22.00
2023-09-24T02:40:35.230Z,21.90
2023-09-24T02:43:04.904Z,21.90
2023-09-24T02:45:32.604Z,21.90
2023-09-24T02:48:00.025Z,22.00
2023-09-24T02:50:30.311Z,21.90
2023-09-24T02:53:01.069Z,21.90
2023-09-24T02:55:30.104Z,21.90
2023-09-24T02:57:57.664Z,21.90
2023-09-24T03:00:36.472Z,21.90
2023-09-24T03:03:06.368Z,21.90
2023-09-24T03:05:34.989Z,21.90
2023-09-24T03:08:04.049Z,21.90
2023-09-24T03:10:33.641Z,21.90
2023-09-24T03:13:01.726Z,21.90
2023-09-24T03:15:29.011Z,21.90
2023-09-24T03:17:56.582Z,21.80
2023-09-24T03:20:24.954Z,21.80
2023-09-24T03:22:53.503Z,21.70
2023-09-24T03:25:23.517Z,21.70
2023-09-24T03:27:53.086Z,21.70
2023-09-24T03:30:20.944Z,21.70
2023-09-24T03:32:50.412Z,21.60
2023-09-24T03:35:20.549Z,21.60
2023-09-24T03:37:48.319Z,21.50
2023-09-24T03:40:21.965Z,21.50
2023-09-24T03:42:49.588Z,21.40
2023-09-24T03:45:18.663Z,21.40
2023-09-24T03:47:49.552Z,21.40
2023-09-24T03:50:21.030Z,21.30
2023-09-24T03:52:50.512Z,21.30
2023-09-24T03:55:20.439Z,21.30
2023-09-24T03:57:48.915Z,21.30
2023-09-24T04:00:20.079Z,21.30
2023-09-24T04:02:50.369Z,21.30
2023-09-24T04:05:21.201Z,21.20
2023-09-24T04:07:52.864Z,21.20
2023-09-24T04:10:21.646Z,21.20
2023-09-24T04:12:52.166Z,21.20
2023-09-24T04:15:30.924Z,21.20
2023-09-24T04:18:01.152Z,21.20
2023-09-24T04:20:31.037Z,21.20
2023-09-24T04:22:59.094Z,21.20
2023-09-24T04:25:28.485Z,21.20
2023-09-24T04:27:56.325Z,21.20
2023-09-24T04:30:25.698Z,21.20
2023-09-24T04:32:54.751Z,21.30
2023-09-24T04:35:22.820Z,21.20
2023-09-24T04:37:52.019Z,21.20
2023-09-24T04:40:20.285Z,21.20
2023-09-24T04:42:51.411Z,21.20
2023-09-24T04:45:20.234Z,21.20
2023-09-24T04:47:50.663Z,21.20
2023-09-24T04:50:19.574Z,21.20
2023-09-24T04:52:49.514Z,21.30
2023-09-24T04:55:17.811Z,21.30
2023-09-24T04:57:48.773Z,21.30
2023-09-24T05:00:17.872Z,21.40
2023-09-24T05:02:46.318Z,21.40
2023-09-24T05:05:14.110Z,21.40
2023-09-24T05:07:42.665Z,21.50
2023-09-24T05:10:13.877Z,21.50
2023-09-24T05:12:43.228Z,21.50
2023-09-24T05:15:11.084Z,21.50
2023-09-24T05:17:38.779Z,21.60
2023-09-24T05:20:09.052Z,21.60
2023-09-24T05:22:36.577Z,21.60
2023-09-24T05:25:04.037Z,21.70
2023-09-24T05:27:33.789Z,21.70
2023-09-24T05:30:02.267Z,21.80
2023-09-24T05:32:29.773Z,21.80
2023-09-24T05:34:57.115Z,21.80
2023-09-24T05:37:24.427Z,21.90
2023-09-24T05:39:51.631Z,21.90
2023-09-24T05:42:19.152Z,22.00
2023-09-24T05:44:46.525Z,22.10
2023-09-24T05:47:13.844Z,22.20
2023-09-24T05:49:41.070Z,22.30
2023-09-24T05:52:08.359Z,22.40
2023-09-24T05:54:35.743Z,22.50
2023-09-24T05:57:05.008Z,22.70
2023-09-24T05:59:32.772Z,22.80
2023-09-24T06:02:00.191Z,22.90
2023-09-24T06:04:27.702Z,23.10
2023-09-24T06:06:55.156Z,23.30
2023-09-24T06:09:22.689Z,23.40
2023-09-24T06:11:50.767Z,23.60
2023-09-24T06:14:18.354Z,23.70
2023-09-24T06:16:45.689Z,23.90
2023-09-24T06:19:13.246Z,24.00
2023-09-24T06:21:40.684Z,24.10
2023-09-24T06:24:09.063Z,24.30
2023-09-24T06:26:39.615Z,24.40
2023-09-24T06:29:11.497Z,24.50
2023-09-24T06:31:40.379Z,24.60
2023-09-24T06:34:08.687Z,24.70
2023-09-24T06:36:36.025Z,24.70
2023-09-24T06:39:09.557Z,24.80
2023-09-24T06:41:37.204Z,24.80
2023-09-24T06:44:04.715Z,24.90
2023-09-24T06:46:32.158Z,25.00
2023-09-24T06:49:00.130Z,25.10
2023-09-24T06:51:28.049Z,25.20
2023-09-24T06:53:55.738Z,25.20
2023-09-24T06:56:23.072Z,25.20
2023-09-24T06:58:50.338Z,25.10
2023-09-24T07:01:17.844Z,25.20
2023-09-24T07:03:45.673Z,25.10
2023-09-24T07:06:13.260Z,25.10
2023-09-24T07:08:40.643Z,25.10
2023-09-24T07:11:26.341Z,25.20
2023-09-24T07:13:54.004Z,25.20
2023-09-24T07:16:23.744Z,25.30
2023-09-24T07:18:52.163Z,25.20
2023-09-24T07:21:33.760Z,25.20
2023-09-24T07:24:07.849Z,25.20
2023-09-24T07:26:35.513Z,25.20
2023-09-24T07:29:02.926Z,25.20
2023-09-24T07:31:31.675Z,25.20
2023-09-24T07:34:01.704Z,25.30
2023-09-24T07:36:39.066Z,25.30
2023-09-24T07:39:12.933Z,25.40
2023-09-24T07:41:40.364Z,25.40
2023-09-24T07:44:07.883Z,25.50
2023-09-24T07:46:35.383Z,25.50
2023-09-24T07:49:07.111Z,25.70
2023-09-24T07:51:35.432Z,25.70
2023-09-24T07:54:03.690Z,25.60
2023-09-24T07:56:32.266Z,25.40
2023-09-24T07:58:59.915Z,25.40
2023-09-24T08:01:28.415Z,25.40
2023-09-24T08:03:56.180Z,25.50
2023-09-24T08:06:23.591Z,25.70
2023-09-24T08:08:57.496Z,25.80
2023-09-24T08:11:34.286Z,26.00
2023-09-24T08:14:01.789Z,25.90
2023-09-24T08:16:29.513Z,26.00
2023-09-24T08:18:58.654Z,26.10
2023-09-24T08:21:27.183Z,26.10
2023-09-24T08:23:54.601Z,26.20
2023-09-24T08:26:21.973Z,26.30
2023-09-24T08:28:49.374Z,26.30
2023-09-24T08:31:16.804Z,26.50
2023-09-24T08:33:44.216Z,26.70
2023-09-24T08:36:12.682Z,26.60
2023-09-24T08:38:40.492Z,26.60
2023-09-24T08:41:12.692Z,26.60
2023-09-24T08:43:43.799Z,26.70
2023-09-24T08:46:12.927Z,26.70
2023-09-24T08:48:41.832Z,26.70
2023-09-24T08:51:13.574Z,26.70
2023-09-24T08:53:41.561Z,26.70
2023-09-24T08:56:12.237Z,26.90
2023-09-24T08:58:40.956Z,27.10
2023-09-24T09:01:12.210Z,27.10
2023-09-24T09:03:41.452Z,27.30
2023-09-24T09:06:09.385Z,27.50
2023-09-24T09:09:04.141Z,27.50
2023-09-24T09:11:47.989Z,27.20
2023-09-24T09:14:16.289Z,27.30
2023-09-24T09:16:57.146Z,27.40
2023-09-24T09:19:28.051Z,27.70
2023-09-24T09:21:55.436Z,27.90
2023-09-24T09:24:27.133Z,28.00
2023-09-24T09:26:58.637Z,27.80
2023-09-24T09:29:28.739Z,27.50
2023-09-24T09:31:58.092Z,27.30
2023-09-24T09:34:26.908Z,27.30
2023-09-24T09:36:54.486Z,27.50
2023-09-24T09:39:22.028Z,27.70
2023-09-24T09:41:52.438Z,27.90
2023-09-24T09:44:25.333Z,28.00
2023-09-24T09:46:56.264Z,28.30
2023-09-24T09:49:27.092Z,28.50
2023-09-24T09:51:59.020Z,28.90
2023-09-24T09:54:26.869Z,28.80
2023-09-24T09:56:56.750Z,29.00
2023-09-24T09:59:25.055Z,29.20
2023-09-24T10:01:52.803Z,29.30
2023-09-24T10:04:20.914Z,29.20
2023-09-24T10:06:48.413Z,29.00
2023-09-24T10:09:28.204Z,28.60
2023-09-24T10:11:57.948Z,28.60
2023-09-24T10:14:50.070Z,28.50
2023-09-24T10:17:17.398Z,28.40
2023-09-24T10:19:52.216Z,28.40
2023-09-24T10:22:35.832Z,28.60
2023-09-24T10:25:32.048Z,28.50
2023-09-24T10:28:10.880Z,28.50
2023-09-24T10:31:05.774Z,28.10
2023-09-24T10:33:54.509Z,27.40
2023-09-24T10:36:27.097Z,27.20
2023-09-24T10:39:12.680Z,27.30
2023-09-24T10:42:13.042Z,27.30
2023-09-24T10:44:40.843Z,27.20
2023-09-24T10:47:31.924Z,27.10
2023-09-24T10:50:12.148Z,27.20
2023-09-24T10:52:51.524Z,27.50
2023-09-24T10:55:21.636Z,27.70
2023-09-24T10:57:54.438Z,28.20
2023-09-24T11:00:24.223Z,28.40
2023-09-24T11:02:59.420Z,28.50
2023-09-24T11:05:28.750Z,28.70
2023-09-24T11:07:56.747Z,29.00
2023-09-24T11:10:26.662Z,28.80
2023-09-24T11:12:56.570Z,28.80
2023-09-24T11:15:26.517Z,28.90
2023-09-24T11:17:55.548Z,28.60
2023-09-24T11:20:26.096Z,28.40
2023-09-24T11:23:12.757Z,28.30
2023-09-24T11:25:40.755Z,28.30
2023-09-24T11:28:08.455Z,28.70
2023-09-24T11:30:51.791Z,29.00
2023-09-24T11:33:24.187Z,29.40
2023-09-24T11:35:54.195Z,29.60
2023-09-24T11:38:35.677Z,30.10
2023-09-24T11:41:10.920Z,30.50
2023-09-24T11:43:38.666Z,30.60
2023-09-24T11:46:30.135Z,31.10
2023-09-24T11:49:00.735Z,31.20
2023-09-24T11:51:29.525Z,31.40
2023-09-24T11:53:59.512Z,32.00
2023-09-24T11:56:27.241Z,32.20
2023-09-24T11:58:56.445Z,32.40
2023-09-24T12:01:23.786Z,32.50
2023-09-24T12:03:51.474Z,32.70
2023-09-24T12:06:19.129Z,32.90
2023-09-24T12:08:47.021Z,32.80
2023-09-24T12:11:14.983Z,32.50
2023-09-24T12:13:42.449Z,32.70
2023-09-24T12:16:12.739Z,32.50
2023-09-24T12:18:42.278Z,32.70
2023-09-24T12:21:09.810Z,32.40
2023-09-24T12:23:37.223Z,32.60
2023-09-24T12:26:04.597Z,33.10
2023-09-24T12:28:33.857Z,32.80
2023-09-24T12:31:01.331Z,32.70
2023-09-24T12:33:28.853Z,32.80
2023-09-24T12:35:56.420Z,32.60
2023-09-24T12:38:23.852Z,33.10
2023-09-24T12:40:51.284Z,32.80
2023-09-24T12:43:18.684Z,33.00
2023-09-24T12:45:46.318Z,32.70
2023-09-24T12:48:13.711Z,32.70
2023-09-24T12:50:42.659Z,32.50
2023-09-24T12:53:10.333Z,32.80
2023-09-24T12:55:37.888Z,32.40
2023-09-24T12:58:05.194Z,32.40
2023-09-24T13:00:32.595Z,32.30
2023-09-24T13:03:01.436Z,32.20
2023-09-24T13:05:29.561Z,32.20
2023-09-24T13:07:56.811Z,32.50
2023-09-24T13:10:25.407Z,32.90
2023-09-24T13:12:52.753Z,33.00
2023-09-24T13:15:20.315Z,33.20
2023-09-24T13:17:48.462Z,33.20
2023-09-24T13:20:15.902Z,32.60
2023-09-24T13:22:43.338Z,31.90
2023-09-24T13:25:13.019Z,31.00
2023-09-24T13:27:42.250Z,30.30
2023-09-24T13:30:09.946Z,29.70
2023-09-24T13:32:37.919Z,29.40
2023-09-24T13:35:08.354Z,29.10
2023-09-24T13:37:36.639Z,29.00
2023-09-24T13:40:13.923Z,28.70
2023-09-24T13:42:44.106Z,28.60
2023-09-24T13:45:12.159Z,28.70
2023-09-24T13:47:39.657Z,28.80
2023-09-24T13:50:11.381Z,28.70
2023-09-24T13:52:38.829Z,28.60
2023-09-24T13:55:06.490Z,28.40
2023-09-24T13:57:33.966Z,28.30
2023-09-24T14:00:01.409Z,28.10
2023-09-24T14:02:28.819Z,28.20
2023-09-24T14:04:56.279Z,28.20
2023-09-24T14:07:23.586Z,28.20
2023-09-24T14:10:09.224Z,28.10
2023-09-24T14:12:36.704Z,28.10
2023-09-24T14:15:05.620Z,27.60
2023-09-24T14:17:33.893Z,27.70
2023-09-24T14:20:01.271Z,28.00
2023-09-24T14:22:28.682Z,28.30
2023-09-24T14:24:55.925Z,28.30
2023-09-24T14:27:25.196Z,28.30
2023-09-24T14:29:52.850Z,28.20
2023-09-24T14:32:20.179Z,28.20
2023-09-24T14:34:49.069Z,28.20
2023-09-24T14:37:18.954Z,28.20
2023-09-24T14:39:46.167Z,28.20
2023-09-24T14:42:13.945Z,28.00
2023-09-24T14:44:44.035Z,27.90
2023-09-24T14:47:14.331Z,27.80
2023-09-24T14:49:41.720Z,27.60
2023-09-24T14:52:09.100Z,27.50
2023-09-24T14:54:36.576Z,27.30
2023-09-24T14:57:04.020Z,27.20
2023-09-24T14:59:31.425Z,26.90
2023-09-24T15:01:58.713Z,26.80
2023-09-24T15:04:26.200Z,26.80
2023-09-24T15:06:53.754Z,27.00
2023-09-24T15:09:21.039Z,27.10
2023-09-24T15:11:48.364Z,27.20
2023-09-24T15:14:16.374Z,27.10
2023-09-24T15:16:44.197Z,27.00
2023-09-24T15:19:11.545Z,26.90
2023-09-24T15:21:43.094Z,26.90
2023-09-24T15:24:12.826Z,27.10
2023-09-24T15:26:40.256Z,27.20
2023-09-24T15:29:07.855Z,27.10
2023-09-24T15:31:38.191Z,27.10
2023-09-24T15:34:05.701Z,27.20
2023-09-24T15:36:33.059Z,27.20
2023-09-24T15:39:03.321Z,27.10
2023-09-24T15:41:31.666Z,26.90
2023-09-24T15:43:59.125Z,26.70
2023-09-24T15:46:28.448Z,26.90
2023-09-24T15:48:55.883Z,26.90
2023-09-24T15:51:25.276Z,26.80
2023-09-24T15:53:53.961Z,26.80
2023-09-24T15:56:21.171Z,26.80
2023-09-24T15:58:48.492Z,26.90
2023-09-24T16:01:15.938Z,26.70
2023-09-24T16:03:43.504Z,26.60
2023-09-24T16:06:13.986Z,26.50
2023-09-24T16:08:42.188Z,26.30
2023-09-24T16:11:09.489Z,26.10
2023-09-24T16:13:36.793Z,26.10
2023-09-24T16:16:04.271Z,26.10
2023-09-24T16:18:31.575Z,26.00
2023-09-24T16:21:00.259Z,25.90
2023-09-24T16:23:27.833Z,25.90
2023-09-24T16:25:55.129Z,25.80
2023-09-24T16:28:22.550Z,25.70
2023-09-24T16:30:49.854Z,25.70
2023-09-24T16:33:17.273Z,25.60
2023-09-24T16:35:44.581Z,25.70
2023-09-24T16:38:11.846Z,25.70
2023-09-24T16:40:39.073Z,25.70
2023-09-24T16:43:06.991Z,25.70
2023-09-24T16:45:34.633Z,25.70
2023-09-24T16:48:02.057Z,25.70
2023-09-24T16:50:29.773Z,25.80
2023-09-24T16:52:57.611Z,25.80
2023-09-24T16:55:25.225Z,25.90
2023-09-24T16:57:53.228Z,25.90
2023-09-24T17:00:21.395Z,25.90
2023-09-24T17:02:48.942Z,26.00
2023-09-24T17:05:16.977Z,26.00
2023-09-24T17:07:44.221Z,26.00
2023-09-24T17:10:12.529Z,26.00
2023-09-24T17:12:39.770Z,26.00
2023-09-24T17:15:09.606Z,26.10
2023-09-24T17:17:36.883Z,26.10
2023-09-24T17:20:05.688Z,26.00
2023-09-24T17:22:33.012Z,25.90
2023-09-24T17:25:00.581Z,25.80
2023-09-24T17:27:27.883Z,25.80
2023-09-24T17:29:55.222Z,25.80
2023-09-24T17:32:25.115Z,25.70
2023-09-24T17:34:53.931Z,25.70
2023-09-24T17:37:21.139Z,25.60
2023-09-24T17:39:48.470Z,25.40
2023-09-24T17:42:15.862Z,25.20
2023-09-24T17:44:43.131Z,25.10
2023-09-24T17:47:10.323Z,25.00
2023-09-24T17:49:37.572Z,24.90
2023-09-24T17:52:04.925Z,24.90
2023-09-24T17:54:32.358Z,24.90
2023-09-24T17:56:59.648Z,24.90
2023-09-24T17:59:29.540Z,25.00
2023-09-24T18:01:57.253Z,25.10
2023-09-24T18:04:25.334Z,25.10
2023-09-24T18:06:54.869Z,25.20
2023-09-24T18:09:22.517Z,25.10
2023-09-24T18:11:49.932Z,25.00
2023-09-24T18:14:17.350Z,25.00
2023-09-24T18:16:44.897Z,25.00
2023-09-24T18:19:12.258Z,25.00
2023-09-24T18:21:39.934Z,24.90
2023-09-24T18:24:08.289Z,24.90
2023-09-24T18:26:36.116Z,24.80
2023-09-24T18:29:03.322Z,24.90
2023-09-24T18:31:30.686Z,24.90
2023-09-24T18:33:58.289Z,24.80
2023-09-24T18:36:26.182Z,24.70
2023-09-24T18:38:53.759Z,24.60
2023-09-24T18:41:21.086Z,24.60
2023-09-24T18:43:48.615Z,24.50
2023-09-24T18:46:16.155Z,24.50
2023-09-24T18:48:43.591Z,24.50
2023-09-24T18:51:14.946Z,24.40
2023-09-24T18:53:42.488Z,24.40
2023-09-24T18:56:10.666Z,24.40
2023-09-24T18:58:38.037Z,24.50
2023-09-24T19:01:09.865Z,24.50
2023-09-24T19:03:37.499Z,24.50
2023-09-24T19:06:09.997Z,24.40
2023-09-24T19:08:38.153Z,24.30
2023-09-24T19:11:08.010Z,24.20
2023-09-24T19:13:35.771Z,24.20
2023-09-24T19:16:07.981Z,24.20
2023-09-24T19:18:35.735Z,24.20
2023-09-24T19:21:03.912Z,24.20
2023-09-24T19:23:33.722Z,24.10
2023-09-24T19:26:19.916Z,24.10
2023-09-24T19:28:47.359Z,24.10
2023-09-24T19:31:16.718Z,24.10
2023-09-24T19:33:46.167Z,24.10
2023-09-24T19:36:17.588Z,24.00
2023-09-24T19:38:49.370Z,23.90
2023-09-24T19:41:16.970Z,23.90
2023-09-24T19:43:44.660Z,23.90
2023-09-24T19:46:12.824Z,23.80
2023-09-24T19:48:40.687Z,23.80
2023-09-24T19:51:08.978Z,23.80
2023-09-24T19:53:37.955Z,23.80
2023-09-24T19:56:05.836Z,23.80
2023-09-24T19:58:33.686Z,23.90
2023-09-24T20:01:01.951Z,23.90
2023-09-24T20:03:29.510Z,23.90
2023-09-24T20:05:57.519Z,23.90
2023-09-24T20:08:34.273Z,23.80
2023-09-24T20:11:01.631Z,23.80
2023-09-24T20:13:30.217Z,23.80
2023-09-24T20:15:57.660Z,23.90
2023-09-24T20:18:25.010Z,23.90
2023-09-24T20:20:52.362Z,23.90
2023-09-24T20:23:20.173Z,23.90
2023-09-24T20:25:51.517Z,23.90
2023-09-24T20:28:23.442Z,23.90
2023-09-24T20:30:58.834Z,23.90
2023-09-24T20:33:33.904Z,23.90
2023-09-24T20:36:06.341Z,23.90
2023-09-24T20:38:34.573Z,23.80
2023-09-24T20:41:14.975Z,23.90
2023-09-24T20:43:42.755Z,23.80
2023-09-24T20:46:14.771Z,23.80
2023-09-24T20:48:42.690Z,23.90
2023-09-24T20:51:10.350Z,23.90
2023-09-24T20:53:37.815Z,23.90
2023-09-24T20:56:05.200Z,23.90
2023-09-24T20:58:32.619Z,23.90
2023-09-24T21:01:01.396Z,23.80
2023-09-24T21:03:29.002Z,23.70
2023-09-24T21:05:56.294Z,23.70
2023-09-24T21:08:23.657Z,23.70
2023-09-24T21:10:50.904Z,23.70
2023-09-24T21:13:18.691Z,23.70
2023-09-24T21:15:46.037Z,23.70
2023-09-24T21:18:13.484Z,23.80
2023-09-24T21:20:40.770Z,23.70
2023-09-24T21:23:08.085Z,23.70
2023-09-24T21:25:35.544Z,23.60
2023-09-24T21:28:02.851Z,23.60
2023-09-24T21:30:30.283Z,23.70
2023-09-24T21:32:57.671Z,23.60
2023-09-24T21:35:25.396Z,23.60
2023-09-24T21:37:52.735Z,23.60
2023-09-24T21:40:20.115Z,23.60
2023-09-24T21:42:47.496Z,23.60
2023-09-24T21:45:14.787Z,23.60
2023-09-24T21:47:46.505Z,23.60
2023-09-24T21:50:14.250Z,23.50
2023-09-24T21:52:41.866Z,23.40
2023-09-24T21:55:09.502Z,23.30
2023-09-24T21:57:36.771Z,23.30
2023-09-24T22:00:12.429Z,23.30
2023-09-24T22:02:39.984Z,23.30
2023-09-24T22:05:08.036Z,23.30
2023-09-24T22:07:35.865Z,23.30
2023-09-24T22:10:03.598Z,23.30
2023-09-24T22:12:31.042Z,23.30
2023-09-24T22:14:58.393Z,23.30
2023-09-24T22:17:26.334Z,23.30
2023-09-24T22:19:53.691Z,23.30
2023-09-24T22:22:21.675Z,23.20
2023-09-24T22:24:48.928Z,23.20
2023-09-24T22:27:16.391Z,23.10
2023-09-24T22:29:44.356Z,23.10
2023-09-24T22:32:11.859Z,23.10
2023-09-24T22:34:39.188Z,23.00
2023-09-24T22:37:06.469Z,23.00
2023-09-24T22:39:33.778Z,23.00
2023-09-24T22:42:01.374Z,22.90
2023-09-24T22:44:28.672Z,22.90
2023-09-24T22:46:56.920Z,22.90
2023-09-24T22:49:24.174Z,22.90
2023-09-24T22:51:52.153Z,22.90
2023-09-24T22:54:20.041Z,22.80
2023-09-24T22:56:47.580Z,22.80
2023-09-24T22:59:14.950Z,22.80
2023-09-24T23:01:42.356Z,22.70
2023-09-24T23:04:10.807Z,22.70
2023-09-24T23:06:38.752Z,22.60
2023-09-24T23:09:07.499Z,22.60
2023-09-24T23:11:37.259Z,22.60
2023-09-24T23:14:04.943Z,22.60
2023-09-24T23:16:32.192Z,22.60
2023-09-24T23:18:59.957Z,22.60
2023-09-24T23:21:27.368Z,22.60
2023-09-24T23:23:54.647Z,22.60
2023-09-24T23:26:22.338Z,22.60
2023-09-24T23:28:50.022Z,22.60
2023-09-24T23:31:17.573Z,22.60
2023-09-24T23:33:45.189Z,22.60
2023-09-24T23:36:13.051Z,22.50
2023-09-24T23:38:40.361Z,22.60
2023-09-24T23:41:07.654Z,22.50
2023-09-24T23:43:34.985Z,22.50
2023-09-24T23:46:04.397Z,22.50
2023-09-24T23:48:35.001Z,22.40
2023-09-24T23:51:04.133Z,22.40
2023-09-24T23:53:31.736Z,22.40
2023-09-24T23:56:00.328Z,22.30
2023-09-24T23:58:27.895Z,22.30
